createdAt,value
2019-01-17T00:00:03.993Z,4.55
2019-01-17T00:02:43.503Z,5.30
2019-01-17T00:05:20.014Z,3.90
2019-01-17T00:07:46.226Z,3.67
2019-01-17T00:10:10.773Z,5.30
2019-01-17T00:12:30.183Z,4.20
2019-01-17T00:14:50.401Z,4.12
2019-01-17T00:17:30.036Z,4.35
2019-01-17T00:19:45.114Z,5.10
2019-01-17T00:22:09.561Z,5.78
2019-01-17T00:24:35.458Z,6.47
2019-01-17T00:26:59.331Z,4.95
2019-01-17T00:29:17.866Z,4.92
2019-01-17T00:31:43.205Z,6.92
2019-01-17T00:34:03.041Z,7.42
2019-01-17T00:36:42.509Z,4.00
2019-01-17T00:39:17.589Z,2.95
2019-01-17T00:41:42.002Z,3.77
2019-01-17T00:44:12.570Z,6.25
2019-01-17T00:46:49.689Z,7.75
2019-01-17T00:49:14.193Z,12.75
2019-01-17T00:51:53.559Z,8.75
2019-01-17T00:54:21.165Z,4.12
2019-01-17T00:56:52.738Z,10.13
2019-01-17T00:59:23.093Z,5.75
2019-01-17T01:01:59.702Z,3.50
2019-01-17T01:04:17.710Z,4.10
2019-01-17T01:06:48.155Z,3.27
2019-01-17T01:09:15.541Z,5.03
2019-01-17T01:11:29.201Z,5.60
2019-01-17T01:13:56.662Z,4.45
2019-01-17T01:16:32.922Z,4.35
2019-01-17T01:19:03.413Z,8.05
2019-01-17T01:21:27.783Z,12.47
2019-01-17T01:24:04.651Z,7.22
2019-01-17T01:26:47.917Z,6.65
2019-01-17T01:29:11.204Z,9.15
2019-01-17T01:31:34.465Z,9.90
2019-01-17T01:33:51.151Z,7.72
2019-01-17T01:36:21.002Z,6.53
2019-01-17T01:38:48.441Z,10.50
2019-01-17T01:41:01.758Z,7.80
2019-01-17T01:43:35.911Z,9.23
2019-01-17T01:46:03.974Z,9.55
2019-01-17T01:48:41.545Z,10.90
2019-01-17T01:51:14.998Z,6.00
2019-01-17T01:53:20.461Z,9.18
2019-01-17T01:55:26.391Z,12.25
2019-01-17T01:57:31.911Z,7.08
2019-01-17T01:59:37.815Z,5.47
2019-01-17T02:01:45.638Z,6.45
2019-01-17T02:03:51.195Z,6.67
2019-01-17T02:05:56.731Z,6.35
2019-01-17T02:08:05.561Z,2.35
2019-01-17T02:10:11.477Z,6.62
2019-01-17T02:12:17.016Z,5.00
2019-01-17T02:14:24.417Z,4.87
2019-01-17T02:16:30.453Z,3.50
2019-01-17T02:18:35.863Z,6.58
2019-01-17T02:20:42.589Z,3.58
2019-01-17T02:22:50.144Z,5.10
2019-01-17T02:24:55.859Z,4.65
2019-01-17T02:27:11.755Z,7.10
2019-01-17T02:29:18.098Z,6.12
2019-01-17T02:31:23.605Z,3.20
2019-01-17T02:33:30.225Z,5.75
2019-01-17T02:35:35.850Z,5.90
2019-01-17T02:37:41.285Z,8.13
2019-01-17T02:39:52.754Z,4.03
2019-01-17T02:41:58.368Z,5.67
2019-01-17T02:44:07.920Z,3.10
2019-01-17T02:46:19.706Z,3.35
2019-01-17T02:48:26.789Z,5.30
2019-01-17T02:50:32.393Z,3.05
2019-01-17T03:47:40.333Z,5.22
2019-01-17T03:49:52.793Z,3.30
2019-01-17T03:51:58.351Z,2.85
2019-01-17T03:54:04.448Z,4.78
2019-01-17T03:56:10.059Z,2.20
2019-01-17T03:58:15.758Z,3.50
2019-01-17T04:00:21.572Z,5.35
2019-01-17T04:02:27.626Z,5.60
2019-01-17T04:04:33.249Z,3.72
2019-01-17T04:06:38.867Z,4.05
2019-01-17T04:08:45.210Z,3.95
2019-01-17T04:10:50.762Z,7.55
2019-01-17T04:12:56.669Z,4.15
2019-01-17T04:15:02.259Z,3.08
2019-01-17T04:17:08.114Z,5.65
2019-01-17T04:19:13.618Z,5.20
2019-01-17T04:21:19.106Z,3.17
2019-01-17T04:23:24.698Z,3.30
2019-01-17T04:25:30.685Z,5.22
2019-01-17T04:27:37.233Z,3.50
2019-01-17T04:29:42.754Z,5.28
2019-01-17T04:31:48.314Z,2.92
2019-01-17T04:33:56.620Z,4.08
2019-01-17T04:36:03.274Z,5.33
2019-01-17T04:38:09.513Z,3.55
2019-01-17T04:40:15.326Z,3.22
2019-01-17T04:42:20.769Z,2.35
2019-01-17T04:44:26.543Z,2.67
2019-01-17T04:46:32.026Z,7.03
2019-01-17T04:48:37.652Z,2.75
2019-01-17T04:50:43.272Z,3.35
2019-01-17T04:52:49.936Z,6.17
2019-01-17T04:54:55.465Z,4.40
2019-01-17T04:57:00.905Z,5.03
2019-01-17T04:59:06.513Z,4.62
2019-01-17T05:01:11.951Z,4.50
2019-01-17T05:03:17.561Z,4.58
2019-01-17T05:05:24.098Z,8.50
2019-01-17T05:07:32.263Z,5.03
2019-01-17T05:09:37.753Z,6.42
2019-01-17T05:11:43.433Z,5.17
2019-01-17T05:13:49.013Z,3.77
2019-01-17T05:15:54.717Z,4.42
2019-01-17T05:18:00.145Z,4.65
2019-01-17T05:20:06.836Z,3.22
2019-01-17T05:22:12.773Z,6.28
2019-01-17T05:24:19.945Z,4.22
2019-01-17T05:26:25.526Z,2.65
2019-01-17T05:28:30.975Z,4.47
2019-01-17T05:30:51.866Z,9.85
2019-01-17T05:32:57.385Z,4.70
2019-01-17T05:35:03.161Z,2.27
2019-01-17T05:37:09.057Z,2.77
2019-01-17T05:39:14.638Z,4.40
2019-01-17T05:41:20.174Z,3.87
2019-01-17T05:43:29.405Z,5.95
2019-01-17T05:45:34.810Z,5.15
2019-01-17T05:47:40.693Z,5.05
2019-01-17T05:49:47.551Z,3.55
2019-01-17T05:51:53.598Z,4.55
2019-01-17T05:53:59.050Z,4.28
2019-01-17T05:56:04.757Z,6.80
2019-01-17T05:58:10.366Z,3.65
2019-01-17T06:00:17.947Z,6.95
2019-01-17T06:02:23.761Z,4.15
2019-01-17T06:04:29.447Z,3.42
2019-01-17T06:06:35.162Z,3.92
2019-01-17T06:08:42.461Z,4.20
2019-01-17T06:10:48.152Z,4.50
2019-01-17T06:12:54.361Z,2.47
2019-01-17T06:15:06.525Z,3.10
2019-01-17T06:17:18.053Z,3.08
2019-01-17T06:19:25.474Z,2.30
2019-01-17T06:21:31.344Z,3.08
2019-01-17T06:24:07.128Z,4.12
2019-01-17T06:26:13.380Z,4.15
2019-01-17T06:28:19.365Z,2.75
2019-01-17T06:30:24.911Z,5.85
2019-01-17T06:32:31.217Z,4.85
2019-01-17T06:34:37.397Z,3.98
2019-01-17T06:36:42.848Z,2.60
2019-01-17T06:38:54.109Z,2.60
2019-01-17T06:41:00.166Z,4.03
2019-01-17T06:43:06.182Z,2.90
2019-01-17T06:45:15.154Z,4.20
2019-01-17T06:47:20.643Z,4.22
2019-01-17T06:49:27.255Z,3.70
2019-01-17T06:51:36.447Z,3.50
2019-01-17T06:53:45.135Z,3.50
2019-01-17T06:55:51.367Z,3.95
2019-01-17T06:57:56.957Z,6.42
2019-01-17T07:00:02.345Z,3.37
2019-01-17T07:02:09.181Z,2.72
2019-01-17T07:04:14.585Z,4.60
2019-01-17T07:06:20.444Z,5.70
2019-01-17T07:08:25.862Z,4.55
2019-01-17T07:10:31.337Z,7.37
2019-01-17T07:12:36.974Z,2.67
2019-01-17T07:14:42.969Z,6.00
2019-01-17T07:16:50.445Z,5.00
2019-01-17T07:18:55.942Z,5.80
2019-01-17T07:21:01.526Z,5.37
2019-01-17T07:23:06.926Z,8.20
2019-01-17T07:25:12.441Z,3.52
2019-01-17T07:27:18.013Z,2.95
2019-01-17T07:29:24.502Z,3.15
2019-01-17T07:31:29.882Z,5.55
2019-01-17T07:33:39.778Z,5.37
2019-01-17T07:35:45.189Z,6.12
2019-01-17T07:37:50.950Z,3.95
2019-01-17T07:39:56.417Z,4.75
2019-01-17T07:42:03.290Z,4.20
2019-01-17T07:44:08.710Z,4.70
2019-01-17T07:46:14.273Z,3.52
2019-01-17T07:48:23.045Z,5.90
2019-01-17T07:50:28.616Z,3.98
2019-01-17T07:52:34.058Z,7.03
2019-01-17T07:54:39.730Z,4.67
2019-01-17T07:56:45.649Z,4.97
2019-01-17T07:58:51.118Z,2.87
2019-01-17T08:00:56.826Z,4.60
2019-01-17T08:03:02.298Z,7.03
2019-01-17T08:05:08.046Z,4.35
2019-01-17T08:07:14.165Z,3.87
2019-01-17T08:09:19.830Z,4.78
2019-01-17T08:11:26.678Z,4.67
2019-01-17T08:13:32.093Z,4.35
2019-01-17T08:15:38.472Z,3.98
2019-01-17T08:17:43.898Z,4.37
2019-01-17T08:19:49.609Z,9.30
2019-01-17T08:21:55.561Z,4.05
2019-01-17T08:24:04.216Z,5.25
2019-01-17T08:26:09.614Z,3.47
2019-01-17T08:28:18.214Z,3.22
2019-01-17T08:30:25.801Z,4.50
2019-01-17T08:32:33.862Z,2.90
2019-01-17T08:34:39.406Z,2.83
2019-01-17T08:36:44.885Z,15.00
2019-01-17T08:38:50.481Z,3.10
2019-01-17T08:40:56.134Z,4.20
2019-01-17T08:43:01.541Z,4.35
2019-01-17T08:45:07.676Z,3.15
2019-01-17T08:49:24.417Z,3.47
2019-01-17T08:51:31.650Z,5.78
2019-01-17T08:53:37.079Z,3.58
2019-01-17T08:55:42.489Z,5.00
2019-01-17T08:57:48.081Z,6.10
2019-01-17T08:59:53.502Z,4.08
2019-01-17T09:01:58.998Z,3.67
2019-01-17T09:04:04.609Z,4.80
2019-01-17T09:06:10.025Z,5.45
2019-01-17T09:08:15.442Z,4.85
2019-01-17T09:10:26.233Z,4.17
2019-01-17T09:12:31.702Z,4.15
2019-01-17T09:14:37.209Z,5.40
2019-01-17T09:16:44.750Z,3.52
2019-01-17T09:18:50.379Z,6.58
2019-01-17T09:20:55.925Z,4.65
2019-01-17T09:23:01.364Z,3.98
2019-01-17T09:25:08.184Z,3.87
2019-01-17T09:27:13.330Z,5.97
2019-01-17T09:29:18.667Z,8.80
2019-01-17T09:31:23.865Z,5.57
2019-01-17T09:33:29.387Z,3.93
2019-01-17T09:35:35.613Z,4.37
2019-01-17T09:37:40.970Z,6.17
2019-01-17T09:39:46.278Z,4.77
2019-01-17T09:41:51.613Z,5.67
2019-01-17T09:43:57.026Z,3.83
2019-01-17T09:46:02.413Z,7.10
2019-01-17T09:48:15.209Z,5.37
2019-01-17T09:50:24.841Z,4.30
2019-01-17T09:52:30.012Z,3.73
2019-01-17T09:54:41.050Z,4.13
2019-01-17T09:56:46.198Z,7.10
2019-01-17T09:58:51.454Z,5.43
2019-01-17T10:00:56.581Z,5.30
2019-01-17T10:03:01.892Z,4.87
2019-01-17T10:05:07.660Z,4.00
2019-01-17T10:07:14.437Z,4.10
2019-01-17T10:09:19.560Z,4.37
2019-01-17T10:11:27.906Z,5.40
2019-01-17T10:13:33.696Z,3.80
2019-01-17T10:15:52.565Z,4.27
2019-01-17T10:18:45.782Z,3.20
2019-01-17T10:21:30.465Z,7.43
2019-01-17T10:23:46.941Z,4.00
2019-01-17T10:26:21.224Z,2.87
2019-01-17T10:29:00.430Z,3.70
2019-01-17T10:31:40.553Z,3.07
2019-01-17T10:34:10.162Z,3.90
2019-01-17T10:37:01.887Z,4.10
2019-01-17T10:39:32.386Z,9.47
2019-01-17T10:42:19.690Z,7.57
2019-01-17T10:44:56.414Z,6.30
2019-01-17T10:48:00.416Z,5.63
2019-01-17T10:50:47.573Z,4.87
2019-01-17T10:53:15.430Z,7.97
2019-01-17T10:56:20.020Z,4.77
2019-01-17T10:58:41.745Z,6.20
2019-01-17T11:01:14.354Z,5.40
2019-01-17T11:03:51.454Z,5.70
2019-01-17T11:06:25.414Z,8.33
2019-01-17T11:09:10.837Z,6.63
2019-01-17T11:11:36.154Z,7.67
2019-01-17T11:14:18.242Z,10.10
2019-01-17T11:17:07.917Z,5.20
2019-01-17T11:19:49.273Z,7.17
2019-01-17T11:22:25.269Z,4.10
2019-01-17T11:25:09.754Z,5.27
2019-01-17T11:28:00.325Z,4.57
2019-01-17T11:30:26.221Z,5.30
2019-01-17T11:33:10.141Z,3.80
2019-01-17T11:35:40.230Z,6.50
2019-01-17T11:38:25.953Z,5.73
2019-01-17T11:40:59.606Z,4.97
2019-01-17T11:43:55.365Z,11.40
2019-01-17T11:46:25.861Z,6.77
2019-01-17T11:49:24.146Z,5.50
2019-01-17T11:51:50.961Z,6.93
2019-01-17T11:54:32.945Z,6.70
2019-01-17T11:57:03.193Z,11.67
2019-01-17T11:59:26.629Z,11.70
2019-01-17T12:01:58.802Z,8.93
2019-01-17T12:04:33.722Z,14.43
2019-01-17T12:06:38.949Z,4.67
2019-01-17T12:08:45.874Z,7.03
2019-01-17T12:10:51.281Z,9.70
2019-01-17T12:12:58.097Z,7.63
2019-01-17T12:15:04.845Z,14.20
2019-01-17T12:17:10.073Z,11.00
2019-01-17T12:19:15.229Z,10.93
2019-01-17T12:21:20.370Z,9.10
2019-01-17T12:23:25.690Z,15.10
2019-01-17T12:25:31.300Z,5.93
2019-01-17T12:27:42.514Z,9.13
2019-01-17T12:29:44.858Z,6.33
2019-01-17T12:31:50.154Z,5.97
2019-01-17T12:33:55.289Z,9.40
2019-01-17T12:36:00.580Z,7.90
2019-01-17T12:38:06.119Z,6.60
2019-01-17T12:40:14.366Z,7.20
2019-01-17T12:42:20.122Z,8.37
2019-01-17T12:44:25.255Z,6.30
2019-01-17T12:46:30.393Z,5.13
2019-01-17T12:48:36.166Z,6.60
2019-01-17T12:50:41.321Z,6.23
2019-01-17T12:52:46.670Z,7.93
2019-01-17T12:54:51.798Z,6.77
2019-01-17T12:56:57.153Z,4.70
2019-01-17T12:59:02.879Z,5.40
2019-01-17T13:01:08.354Z,5.83
2019-01-17T13:03:16.775Z,6.77
2019-01-17T13:05:24.853Z,5.70
2019-01-17T13:07:29.991Z,4.90
2019-01-17T13:09:35.130Z,9.10
2019-01-17T13:11:40.734Z,3.33
2019-01-17T13:13:45.849Z,5.97
2019-01-17T13:15:51.033Z,5.87
2019-01-17T13:17:56.299Z,3.43
2019-01-17T13:20:01.797Z,4.93
2019-01-17T13:22:06.933Z,15.40
2019-01-17T13:24:12.103Z,7.30
2019-01-17T13:26:17.685Z,3.93
2019-01-17T13:28:22.832Z,2.93
2019-01-17T13:30:29.878Z,5.73
2019-01-17T13:32:34.998Z,4.00
2019-01-17T13:34:40.203Z,4.20
2019-01-17T13:36:48.969Z,4.43
2019-01-17T13:38:54.849Z,13.97
2019-01-17T13:41:00.347Z,6.03
2019-01-17T13:43:05.449Z,6.10
2019-01-17T13:45:12.474Z,9.37
2019-01-17T13:47:17.625Z,8.77
2019-01-17T13:49:22.858Z,3.80
2019-01-17T13:51:28.062Z,4.87
2019-01-17T13:53:33.314Z,4.43
2019-01-17T13:55:39.802Z,4.93
2019-01-17T13:57:45.017Z,6.70
2019-01-17T13:59:50.210Z,3.27
2019-01-17T14:01:56.558Z,3.73
2019-01-17T14:04:02.017Z,5.03
2019-01-17T14:06:07.302Z,2.73
2019-01-17T14:08:20.062Z,3.63
2019-01-17T14:10:25.430Z,3.67
2019-01-17T14:12:30.585Z,11.30
2019-01-17T14:14:36.161Z,3.10
2019-01-17T14:16:41.657Z,3.27
2019-01-17T14:18:47.149Z,3.02
2019-01-17T14:20:54.577Z,7.33
2019-01-17T14:23:00.241Z,10.25
2019-01-17T14:25:06.391Z,5.03
2019-01-17T14:27:14.111Z,7.95
2019-01-17T14:29:19.582Z,5.30
2019-01-17T14:31:25.256Z,7.85
2019-01-17T14:33:31.831Z,10.00
2019-01-17T14:35:37.306Z,4.62
2019-01-17T14:37:42.677Z,2.62
2019-01-17T14:39:54.033Z,5.05
2019-01-17T14:41:59.478Z,8.13
2019-01-17T14:44:05.697Z,4.97
2019-01-17T14:46:17.059Z,7.37
2019-01-17T14:48:22.534Z,7.62
2019-01-17T14:50:30.660Z,5.72
2019-01-17T14:52:42.013Z,5.80
2019-01-17T14:54:47.402Z,8.45
2019-01-17T14:56:53.279Z,6.35
2019-01-17T14:58:58.665Z,4.58
2019-01-17T15:01:04.165Z,4.00
2019-01-17T15:03:09.642Z,13.28
2019-01-17T15:05:15.682Z,12.43
2019-01-17T15:07:21.253Z,15.28
2019-01-17T15:09:26.826Z,25.55
2019-01-17T15:11:35.618Z,31.10
2019-01-17T15:13:41.117Z,31.85
2019-01-17T15:15:46.910Z,24.32
2019-01-17T15:17:53.454Z,21.17
2019-01-17T15:19:59.014Z,23.27
2019-01-17T15:22:04.433Z,28.50
2019-01-17T15:24:12.212Z,10.30
2019-01-17T15:26:17.910Z,5.55
2019-01-17T15:28:26.714Z,4.85
2019-01-17T15:30:32.191Z,3.12
2019-01-17T15:32:38.029Z,7.12
2019-01-17T15:34:46.609Z,2.10
2019-01-17T15:36:52.025Z,2.60
2019-01-17T15:38:57.454Z,2.47
2019-01-17T15:41:05.757Z,8.08
2019-01-17T15:43:11.145Z,2.95
2019-01-17T15:45:16.830Z,2.60
2019-01-17T15:47:22.353Z,2.65
2019-01-17T15:49:27.848Z,3.75
2019-01-17T15:51:33.250Z,5.10
2019-01-17T15:53:38.629Z,2.27
2019-01-17T15:55:44.090Z,5.47
2019-01-17T15:57:49.596Z,2.90
2019-01-17T16:00:00.750Z,3.62
2019-01-17T16:02:07.238Z,4.95
2019-01-17T16:04:12.706Z,9.48
2019-01-17T16:06:24.737Z,2.77
2019-01-17T16:08:30.285Z,1.92
2019-01-17T16:10:35.680Z,4.40
2019-01-17T16:12:46.770Z,7.62
2019-01-17T16:14:52.273Z,4.05
2019-01-17T16:16:57.762Z,3.35
2019-01-17T16:19:03.179Z,3.08
2019-01-17T16:21:08.573Z,4.35
2019-01-17T16:23:14.005Z,2.75
2019-01-17T16:25:19.392Z,4.25
2019-01-17T16:27:25.494Z,4.22
2019-01-17T16:29:31.061Z,6.03
2019-01-17T16:31:36.606Z,4.70
2019-01-17T16:33:42.008Z,2.35
2019-01-17T16:35:47.529Z,3.37
2019-01-17T16:37:54.141Z,7.28
2019-01-17T16:39:59.733Z,4.72
2019-01-17T16:42:05.637Z,5.25
2019-01-17T16:44:11.686Z,3.47
2019-01-17T16:46:17.090Z,4.58
2019-01-17T16:50:33.914Z,4.97
2019-01-17T16:52:45.117Z,4.42
2019-01-17T16:54:53.320Z,2.17
2019-01-17T16:56:58.737Z,11.43
2019-01-17T16:59:06.583Z,4.92
2019-01-17T17:01:11.993Z,5.28
2019-01-17T17:03:18.076Z,6.33
2019-01-17T17:05:24.125Z,5.85
2019-01-17T17:07:29.725Z,4.20
2019-01-17T17:09:35.509Z,5.22
2019-01-17T17:11:41.053Z,5.62
2019-01-17T17:13:46.728Z,4.60
2019-01-17T17:15:52.213Z,4.55
2019-01-17T17:17:57.632Z,5.80
2019-01-17T17:20:03.161Z,6.10
2019-01-17T17:22:08.801Z,5.35
2019-01-17T17:24:14.338Z,5.70
2019-01-17T17:26:19.779Z,3.60
2019-01-17T17:28:25.493Z,3.55
2019-01-17T17:30:30.946Z,3.30
2019-01-17T17:32:37.074Z,6.10
2019-01-17T17:34:42.959Z,3.25
2019-01-17T17:36:48.433Z,4.22
2019-01-17T17:38:53.939Z,7.72
2019-01-17T17:40:59.368Z,3.30
2019-01-17T17:43:07.912Z,8.50
2019-01-17T17:45:13.440Z,2.77
2019-01-17T17:47:19.074Z,4.22
2019-01-17T17:49:24.509Z,6.03
2019-01-17T17:51:30.230Z,7.90
2019-01-17T17:53:35.697Z,3.70
2019-01-17T17:55:41.821Z,3.80
2019-01-17T17:57:47.513Z,4.97
2019-01-17T17:59:53.129Z,8.70
2019-01-17T18:02:04.262Z,3.52
2019-01-17T18:04:09.637Z,4.55
2019-01-17T18:06:15.033Z,2.00
2019-01-17T18:08:23.666Z,2.35
2019-01-17T18:10:29.130Z,2.25
2019-01-17T18:12:36.169Z,3.35
2019-01-17T18:14:41.923Z,3.70
2019-01-17T18:16:47.606Z,8.08
2019-01-17T18:18:53.153Z,12.33
2019-01-17T18:20:58.553Z,16.57
2019-01-17T18:23:04.236Z,16.65
2019-01-17T18:25:10.564Z,18.70
2019-01-17T18:27:18.270Z,19.87
2019-01-17T18:29:24.028Z,17.80
2019-01-17T18:31:29.709Z,24.55
2019-01-17T18:33:35.195Z,30.85
2019-01-17T18:35:40.826Z,28.98
2019-01-17T18:37:46.642Z,38.65
2019-01-17T18:39:52.062Z,34.48
2019-01-17T18:41:57.730Z,21.93
2019-01-17T18:44:03.179Z,20.80
2019-01-17T18:46:08.610Z,22.00
2019-01-17T18:48:14.079Z,20.17
2019-01-17T18:50:24.895Z,27.20
2019-01-17T18:52:33.305Z,19.10
2019-01-17T18:54:38.729Z,22.22
2019-01-17T18:56:44.605Z,12.82
2019-01-17T18:58:50.248Z,12.40
2019-01-17T19:00:55.834Z,14.47
2019-01-17T19:03:01.565Z,15.65
2019-01-17T19:05:07.082Z,21.23
2019-01-17T19:07:15.644Z,18.90
2019-01-17T19:09:21.234Z,18.30
2019-01-17T19:11:26.909Z,26.77
2019-01-17T19:13:32.345Z,24.50
2019-01-17T19:15:37.961Z,20.02
2019-01-17T19:17:43.624Z,23.52
2019-01-17T19:19:49.821Z,19.87
2019-01-17T19:21:55.434Z,17.90
2019-01-17T19:24:01.458Z,14.70
2019-01-17T19:26:07.385Z,15.45
2019-01-17T19:28:12.785Z,19.30
2019-01-17T19:30:20.517Z,14.35
2019-01-17T19:32:34.127Z,17.12
2019-01-17T19:34:39.766Z,12.55
2019-01-17T19:36:45.685Z,19.25
2019-01-17T19:38:51.100Z,11.68
2019-01-17T19:41:01.135Z,19.77
2019-01-17T19:43:26.384Z,12.13
2019-01-17T19:45:49.674Z,11.55
2019-01-17T19:48:12.809Z,10.82
2019-01-17T19:50:37.697Z,7.55
2019-01-17T19:53:01.193Z,9.40
2019-01-17T19:55:24.454Z,8.53
2019-01-17T19:57:47.469Z,13.03
2019-01-17T20:00:12.617Z,7.47
2019-01-17T20:02:35.858Z,9.40
2019-01-17T20:04:59.197Z,11.85
2019-01-17T20:07:22.081Z,10.35
2019-01-17T20:09:44.910Z,6.65
2019-01-17T20:12:08.397Z,5.90
2019-01-17T20:14:33.830Z,8.83
2019-01-17T20:17:01.195Z,14.98
2019-01-17T20:19:25.737Z,6.42
2019-01-17T20:21:48.782Z,8.98
2019-01-17T20:24:13.538Z,8.48
2019-01-17T20:26:38.284Z,7.47
2019-01-17T20:29:02.358Z,8.68
2019-01-17T20:31:26.517Z,9.55
2019-01-17T20:33:51.942Z,12.18
2019-01-17T20:36:15.533Z,11.35
2019-01-17T20:38:39.804Z,11.15
2019-01-17T20:41:03.673Z,5.47
2019-01-17T20:43:27.945Z,10.95
2019-01-17T20:45:52.383Z,11.80
2019-01-17T20:48:16.244Z,12.07
2019-01-17T20:50:39.728Z,11.93
2019-01-17T20:53:03.827Z,14.13
2019-01-17T20:55:30.404Z,12.58
2019-01-17T20:57:53.974Z,13.20
2019-01-17T21:00:22.077Z,6.42
2019-01-17T21:02:46.530Z,6.25
2019-01-17T21:05:10.765Z,10.43
2019-01-17T21:07:34.859Z,10.80
2019-01-17T21:09:58.417Z,8.30
2019-01-17T21:12:22.447Z,6.78
2019-01-17T21:14:28.913Z,11.10
2019-01-17T21:16:35.617Z,13.18
2019-01-17T21:18:43.648Z,8.88
2019-01-17T21:23:24.131Z,11.83
2019-01-17T21:25:33.400Z,10.08
2019-01-17T21:27:40.702Z,11.57
2019-01-17T21:29:46.976Z,6.33
2019-01-17T21:31:59.045Z,8.40
2019-01-17T21:34:10.631Z,9.03
2019-01-17T21:36:17.337Z,8.33
2019-01-17T21:38:28.659Z,6.12
2019-01-17T21:40:34.786Z,6.42
2019-01-17T21:42:41.251Z,9.65
2019-01-17T21:44:47.448Z,8.50
2019-01-17T21:46:53.477Z,7.15
2019-01-17T21:48:59.600Z,7.37
2019-01-17T21:51:06.355Z,5.05
2019-01-17T21:53:12.707Z,5.85
2019-01-17T21:55:18.806Z,5.90
2019-01-17T21:57:27.461Z,5.62
2019-01-17T21:59:34.471Z,6.50
2019-01-17T22:01:43.138Z,6.50
2019-01-17T22:03:51.701Z,5.55
2019-01-17T22:05:57.453Z,8.70
2019-01-17T22:08:02.921Z,9.10
2019-01-17T22:10:10.969Z,10.72
2019-01-17T22:12:16.386Z,7.03
2019-01-17T22:14:22.022Z,6.30
2019-01-17T22:16:36.337Z,9.68
2019-01-17T22:18:47.797Z,9.43
2019-01-17T22:20:53.361Z,7.72
2019-01-17T22:23:01.149Z,9.20
2019-01-17T22:25:08.706Z,7.62
2019-01-17T22:27:15.314Z,6.67
2019-01-17T22:29:20.810Z,8.95
2019-01-17T22:31:26.848Z,6.30
2019-01-17T22:33:32.698Z,6.55
2019-01-17T22:35:39.275Z,4.67
2019-01-17T22:37:45.205Z,4.53
2019-01-17T22:39:51.167Z,2.65
2019-01-17T22:42:00.991Z,3.12
2019-01-17T22:44:07.173Z,4.35
2019-01-17T22:46:13.062Z,3.90
2019-01-17T22:48:18.988Z,6.20
2019-01-17T22:50:24.731Z,5.70
2019-01-17T22:52:30.983Z,4.58
2019-01-17T22:54:38.401Z,9.53
2019-01-17T22:56:44.226Z,5.05
2019-01-17T22:58:50.320Z,4.83
2019-01-17T23:01:19.969Z,3.70
2019-01-17T23:03:39.523Z,2.58
2019-01-17T23:05:45.369Z,12.23
2019-01-17T23:07:51.134Z,4.78
2019-01-17T23:09:57.867Z,3.95
2019-01-17T23:12:04.510Z,4.05
2019-01-17T23:14:10.474Z,11.85
2019-01-17T23:16:16.310Z,9.53
2019-01-17T23:18:28.191Z,5.08
2019-01-17T23:20:35.623Z,3.60
2019-01-17T23:22:41.297Z,3.80
2019-01-17T23:24:52.828Z,8.20
2019-01-17T23:26:58.311Z,8.58
2019-01-17T23:29:03.743Z,5.75
2019-01-17T23:31:09.145Z,4.60
2019-01-17T23:33:14.778Z,4.65
2019-01-17T23:35:20.382Z,4.30
2019-01-17T23:37:25.937Z,5.90
2019-01-17T23:39:31.410Z,5.28
2019-01-17T23:41:36.937Z,5.33
2019-01-17T23:43:42.564Z,4.85
2019-01-17T23:45:47.981Z,8.33
2019-01-17T23:50:06.176Z,4.70
2019-01-17T23:52:11.626Z,2.40
2019-01-17T23:54:17.254Z,3.37
2019-01-17T23:56:23.594Z,5.08
2019-01-17T23:58:32.625Z,3.75
